Time,TemperatureF,DewpointF,PressureIn,WindDirection,WindDirectionDegrees,WindSpeedMPH,WindSpeedGustMPH,Humidity,HourlyPrecipIn,Conditions,Clouds,dailyrainin,SoftwareType,DateUTC
2015-09-02 00:07:00,61.5,53.5,29.91,SSE,157,0.0,0.0,75,0.00,,,0.00,open2300-1.11,2015-09-02 07:07:00,
2015-09-02 00:22:00,61.5,52.8,29.91,SW,225,0.0,0.0,73,0.00,,,0.00,open2300-1.11,2015-09-02 07:22:00,
2015-09-02 00:37:00,61.3,53.0,29.91,SSW,202,0.0,0.0,74,0.00,,,0.00,open2300-1.11,2015-09-02 07:37:00,
2015-09-02 00:52:00,60.6,52.7,29.92,SW,225,0.0,0.0,75,0.00,,,0.00,open2300-1.11,2015-09-02 07:52:00,
2015-09-02 01:07:00,60.4,52.9,29.92,SW,225,0.0,0.0,76,0.00,,,0.00,open2300-1.11,2015-09-02 08:07:00,
2015-09-02 01:22:00,59.9,52.7,29.93,SW,225,0.0,0.0,77,0.00,,,0.00,open2300-1.11,2015-09-02 08:22:00,
2015-09-02 01:37:00,59.4,52.9,29.93,SW,225,0.0,0.0,79,0.00,,,0.00,open2300-1.11,2015-09-02 08:37:00,
2015-09-02 01:52:00,59.0,52.9,29.92,SW,225,0.0,0.0,80,0.00,,,0.00,open2300-1.11,2015-09-02 08:52:00,
2015-09-02 02:07:00,58.8,53.0,29.92,SSW,202,0.0,0.0,81,0.00,,,0.00,open2300-1.11,2015-09-02 09:07:00,
2015-09-02 02:22:00,58.6,53.2,29.92,South,180,0.0,0.0,82,0.00,,,0.00,open2300-1.11,2015-09-02 09:22:00,
2015-09-02 02:52:00,58.6,53.2,29.92,SW,225,0.0,0.0,82,0.00,,,0.00,open2300-1.11,2015-09-02 09:52:00,
2015-09-02 03:07:00,58.5,53.0,29.92,SSE,157,0.0,0.0,82,0.00,,,0.00,open2300-1.11,2015-09-02 10:07:00,
2015-09-02 03:22:00,58.5,53.3,29.92,SE,135,0.0,0.0,83,0.00,,,0.00,open2300-1.11,2015-09-02 10:22:00,
2015-09-02 03:37:00,58.3,53.1,29.92,SSW,202,0.0,0.0,83,0.00,,,0.00,open2300-1.11,2015-09-02 10:37:00,
2015-09-02 03:52:00,58.6,53.8,29.92,South,180,0.0,0.0,84,0.00,,,0.00,open2300-1.11,2015-09-02 10:52:00,
2015-09-02 04:07:00,59.0,54.2,29.92,South,180,0.0,0.0,84,0.00,,,0.00,open2300-1.11,2015-09-02 11:07:00,
2015-09-02 04:22:00,59.9,55.1,29.92,SW,225,0.0,0.0,84,0.00,,,0.00,open2300-1.11,2015-09-02 11:22:00,
2015-09-02 04:37:00,60.4,54.0,29.92,SW,225,0.0,0.0,79,0.00,,,0.00,open2300-1.11,2015-09-02 11:37:00,
2015-09-02 04:52:00,60.6,53.4,29.92,SW,225,0.0,0.0,77,0.00,,,0.00,open2300-1.11,2015-09-02 11:52:00,
2015-09-02 05:07:00,60.8,53.6,29.91,SW,225,0.0,0.0,77,0.00,,,0.00,open2300-1.11,2015-09-02 12:07:00,
2015-09-02 05:22:00,60.4,52.9,29.91,SSW,202,0.0,0.0,76,0.00,,,0.00,open2300-1.11,2015-09-02 12:22:00,
2015-09-02 05:37:00,60.3,52.3,29.91,SW,225,0.0,0.0,75,0.00,,,0.00,open2300-1.11,2015-09-02 12:37:00,
2015-09-02 05:52:00,59.9,52.3,29.91,SW,225,0.0,0.0,76,0.00,,,0.00,open2300-1.11,2015-09-02 12:52:00,